Pagina principale
METAR-TAF:

METAR-TAF

Aeroporti :

Zaqatala, Azerbaigian

latitudine: 41-33-44N, longitudine: 46-40-02E, altezza: 330 m

Osservazione

Il bollettino è stato emesso 1 ora e 7 minuti fa, alle 11:00 UTC
Vento 4 kt da sud/sud-est
Temperature 36°C
Umidità 21%
Pressione 1016 hPa
Visibilità 10 km o più

METAR: UBBY 261100Z 15004KT 9999 NSC 36/10 Q1016 R33/////// NOSIG RMK MT OP

Ora: 16:07 (12:07 UTC)

Previsione

Il bollettino è stato emesso 1 ora e 7 minuti fa, alle 11:00 UTC
Previsione valida dal 26 alle 12 UTC al 26 alle 21 UTC
Vento 4 kt da direzioni variabili
Visibilità 10 km o più

TAF: UBBY 261100Z 2612/2621 VRB04KT 9999 NSC

Osservazioni e previsioni meteorologiche di più di 4000 aeroporti (messaggi METAR e TAF).

Le stazioni disponibili sono rappresentate dai dischi gialli e rossi sulla carta.

Puntare il mouse per vedere il nome della stazione.

Clicca sopra per visualizzare le osservazioni e previsioni meteorologiche.

Per cambiare la mappa : fare clic sui pulsanti verdi con una croce nera per ingrandire, il pulsante verde con un trattino per diminuire, o sulla freccia verde per le mappe adiacenti.


METAR-TAF: